Decoded Metar for CYDN (DAUPHIN in MB, CANADA) (IATA:YDN) | Meteo·Mobile Aviation Weather
aviador You're here:

CYDN Decoded Metar

DAUPHIN in MB, CANADA
Report Time2019-04-24 14:00:00
UTC Time2019-04-24 14:18:48
Flight Rules vfr VFR
Wind270° at 13 Gusting to 18 kt
W.Decomp.*RWY 26: 13.0 kt HW 0.7 kt RCW
RWY 32: 7.1 kt HW 10.9 kt LCW
RWY 20: 5.9 kt HW 11.6 kt RCW
Visibility9999 m
Phenomena:N/A
Clouds:N/A
Expected CloudBase > 3,600 ft AGL from Temp-Dew spread
CeilingNone
Temp12°C (ISA -1)
Dew Point03°C (54% RH)
AAT5.8°C
QNH1005 hPa
Density Alt1,260 ft
Elevation1,001 ft
Report Wrong Elevation
Raw Report
CYDN 241400Z AUTO 27013G18KT 9SM CLR 12/03 A2968 RMK SLP057
DENSITY ALT 1100FT=

Extra information for CYDN:More info

Metar Taf Metar & Taf Last 4 Metars F.Rules Stats Wind Profile Meteogram Temp Stats Airport Information Weather charts Add Link Nearby VenuesMetar ALERT Operation Metar Decoded Social comments